Terminal Aerodrome Forecast
Issued by NWS Upton, NY

Home | Current Version | Previous Version | Text Only | Print | Product List | Glossary On
Versions: 1 2 3 4 5 6 7 8 9 10 11 12 13 14 15 16 17 18 19 20 21 22 23 24 25
000
FTUS41 KOKX 312300
TAFLGA
TAF
KLGA 312339Z 0100/0124 06013KT P6SM FEW025 SCT035 OVC045
      TEMPO 0100/0102 -RA BKN035
     FM010200 05014G20KT P6SM -RA OVC025
     FM010600 03015G22KT 5SM -RA BR OVC015
     FM011500 03020G27KT 3SM RA BR OVC010
     FM012000 36021G31KT 5SM -RA BR OVC015
     FM012300 36020G30KT P6SM SCT015 BKN025 OVC035=

USA.gov is the U.S. government's official web portal to all federal, state and local government web resources and services.